createdAt,value
2018-04-02T00:02:14.304Z,4.18
2018-04-02T00:04:41.875Z,4.21
2018-04-02T00:07:10.397Z,4.21
2018-04-02T00:09:37.940Z,4.25
2018-04-02T00:12:05.484Z,4.25
2018-04-02T00:14:33.057Z,4.28
2018-04-02T00:17:00.639Z,4.25
2018-04-02T00:19:28.583Z,4.27
2018-04-02T00:21:56.140Z,4.24
2018-04-02T00:24:23.690Z,4.23
2018-04-02T00:26:51.253Z,4.17
2018-04-02T00:29:18.998Z,4.15
2018-04-02T00:31:46.541Z,4.12
2018-04-02T00:34:14.108Z,4.08
2018-04-02T00:36:41.685Z,4.10
2018-04-02T00:39:10.331Z,4.07
2018-04-02T00:41:38.531Z,4.07
2018-04-02T00:44:06.219Z,4.05
2018-04-02T00:46:33.786Z,4.05
2018-04-02T00:49:01.368Z,4.10
2018-04-02T00:51:28.917Z,4.02
2018-04-02T00:53:56.485Z,4.02
2018-04-02T00:56:24.038Z,4.06
2018-04-02T00:58:51.611Z,4.09
2018-04-02T01:01:19.198Z,4.04
2018-04-02T01:03:46.728Z,4.02
2018-04-02T01:06:14.286Z,3.97
2018-04-02T01:08:41.834Z,3.90
2018-04-02T01:11:09.759Z,3.78
2018-04-02T01:13:37.450Z,3.78
2018-04-02T01:16:05.018Z,3.78
2018-04-02T01:18:32.564Z,3.74
2018-04-02T01:21:00.173Z,3.72
2018-04-02T01:23:27.729Z,3.72
2018-04-02T01:25:55.295Z,3.81
2018-04-02T01:28:22.879Z,3.71
2018-04-02T01:30:50.420Z,3.69
2018-04-02T01:33:17.963Z,3.67
2018-04-02T01:35:45.527Z,3.66
2018-04-02T01:38:13.091Z,3.56
2018-04-02T01:40:40.629Z,3.57
2018-04-02T01:43:08.747Z,3.66
2018-04-02T01:45:36.870Z,3.61
2018-04-02T01:48:04.365Z,3.67
2018-04-02T01:50:32.647Z,3.67
2018-04-02T01:53:00.142Z,3.64
2018-04-02T01:55:28.446Z,3.48
2018-04-02T01:57:56.041Z,3.48
2018-04-02T02:00:23.607Z,3.48
2018-04-02T02:02:51.184Z,3.45
2018-04-02T02:05:20.287Z,3.44
2018-04-02T02:07:47.814Z,3.46
2018-04-02T02:10:15.392Z,3.39
2018-04-02T02:12:42.966Z,3.42
2018-04-02T02:15:15.434Z,3.35
2018-04-02T02:17:43.485Z,3.35
2018-04-02T02:20:12.519Z,3.42
2018-04-02T02:22:40.090Z,3.39
2018-04-02T02:25:11.224Z,3.32
2018-04-02T02:27:38.996Z,3.29
2018-04-02T02:30:06.549Z,3.29
2018-04-02T02:32:34.092Z,3.31
2018-04-02T02:35:01.666Z,3.34
2018-04-02T02:37:30.126Z,3.38
2018-04-02T02:39:57.698Z,3.38
2018-04-02T02:42:29.167Z,3.32
2018-04-02T02:45:00.457Z,3.28
2018-04-02T02:47:31.454Z,3.28
2018-04-02T02:49:59.120Z,3.31
2018-04-02T02:52:26.699Z,3.34
2018-04-02T02:54:54.333Z,3.44
2018-04-02T02:57:23.769Z,3.40
2018-04-02T02:59:51.409Z,3.34
2018-04-02T03:02:19.092Z,3.36
2018-04-02T03:04:47.537Z,3.33
2018-04-02T03:07:15.309Z,3.44
2018-04-02T03:09:42.935Z,3.58
2018-04-02T03:12:10.617Z,3.58
2018-04-02T03:14:38.200Z,3.66
2018-04-02T03:17:06.994Z,3.68
2018-04-02T03:19:34.983Z,3.71
2018-04-02T03:22:02.555Z,3.73
2018-04-02T03:24:30.126Z,3.74
2018-04-02T03:26:57.707Z,3.75
2018-04-02T03:29:25.355Z,3.80
2018-04-02T03:31:52.999Z,3.78
2018-04-02T03:34:20.538Z,3.75
2018-04-02T03:36:48.111Z,3.78
2018-04-02T03:39:15.899Z,3.81
2018-04-02T03:41:43.446Z,3.82
2018-04-02T03:44:11.254Z,3.87
2018-04-02T03:46:39.058Z,3.84
2018-04-02T03:49:07.076Z,3.83
2018-04-02T03:51:35.276Z,3.88
2018-04-02T03:54:02.972Z,3.90
2018-04-02T03:56:30.545Z,3.93
2018-04-02T03:58:58.153Z,3.89
2018-04-02T04:01:25.724Z,3.99
2018-04-02T04:03:53.544Z,4.03
2018-04-02T04:06:21.107Z,4.03
2018-04-02T04:08:48.686Z,4.05
2018-04-02T04:11:16.522Z,4.08
2018-04-02T04:13:44.122Z,4.08
2018-04-02T04:16:11.817Z,4.08
2018-04-02T04:18:39.370Z,4.12
2018-04-02T04:21:07.294Z,4.06
2018-04-02T04:23:35.442Z,4.04
2018-04-02T04:26:03.092Z,4.04
2018-04-02T04:28:30.637Z,4.02
2018-04-02T04:30:58.188Z,4.02
2018-04-02T04:33:25.859Z,4.11
2018-04-02T04:35:53.468Z,4.16
2018-04-02T04:38:21.105Z,4.15
2018-04-02T04:40:48.904Z,4.23
2018-04-02T04:43:17.213Z,4.23
2018-04-02T04:45:44.826Z,4.19
2018-04-02T04:48:12.600Z,4.25
2018-04-02T04:50:40.153Z,4.27
2018-04-02T04:53:07.680Z,4.29
2018-04-02T04:55:36.000Z,4.27
2018-04-02T04:58:03.801Z,4.27
2018-04-02T05:00:32.908Z,4.19
2018-04-02T05:03:00.477Z,4.19
2018-04-02T05:05:28.047Z,4.19
2018-04-02T05:07:55.664Z,4.24
2018-04-02T05:10:23.471Z,4.29
2018-04-02T05:12:51.086Z,4.32
2018-04-02T05:15:19.061Z,4.35
2018-04-02T05:17:46.760Z,4.32
2018-04-02T05:20:14.414Z,4.39
2018-04-02T05:22:42.028Z,4.44
2018-04-02T05:25:10.210Z,4.45
2018-04-02T05:30:27.862Z,4.52
2018-04-02T05:32:55.408Z,4.55
2018-04-02T05:35:23.083Z,4.56
2018-04-02T05:37:52.158Z,4.68
2018-04-02T05:40:19.723Z,4.69
2018-04-02T05:42:47.331Z,4.68
2018-04-02T05:45:15.330Z,4.69
2018-04-02T05:47:43.113Z,4.74
2018-04-02T05:50:22.391Z,4.78
2018-04-02T05:52:49.951Z,4.88
2018-04-02T05:55:17.966Z,4.99
2018-04-02T05:57:45.568Z,5.08
2018-04-02T06:00:13.337Z,5.14
2018-04-02T06:02:40.942Z,5.20
2018-04-02T06:05:08.909Z,5.41
2018-04-02T06:07:36.558Z,5.51
2018-04-02T06:10:04.171Z,5.69
2018-04-02T06:12:34.381Z,5.76
2018-04-02T06:15:04.014Z,5.67
2018-04-02T06:17:31.667Z,5.59
2018-04-02T06:20:02.670Z,5.68
2018-04-02T06:22:31.599Z,5.65
2018-04-02T06:25:01.184Z,5.71
2018-04-02T06:27:29.483Z,5.64
2018-04-02T06:29:58.839Z,5.66
2018-04-02T06:32:31.704Z,5.20
2018-04-02T06:35:06.420Z,5.28
2018-04-02T06:37:34.511Z,5.07
2018-04-02T06:40:02.468Z,5.13
2018-04-02T06:42:31.354Z,5.21
2018-04-02T06:44:59.636Z,5.35
2018-04-02T06:47:31.340Z,5.46
2018-04-02T06:49:58.918Z,5.35
2018-04-02T06:52:27.558Z,5.33
2018-04-02T06:54:59.466Z,5.49
2018-04-02T06:57:27.348Z,5.66
2018-04-02T06:59:55.470Z,5.69
2018-04-02T07:02:23.492Z,5.75
2018-04-02T07:04:51.096Z,6.03
2018-04-02T07:07:20.115Z,5.97
2018-04-02T07:09:47.785Z,5.78
2018-04-02T07:12:15.402Z,5.71
2018-04-02T07:14:42.984Z,5.74
2018-04-02T07:17:11.435Z,5.94
2018-04-02T07:19:39.042Z,6.02
2018-04-02T07:22:06.602Z,6.09
2018-04-02T07:24:34.267Z,6.19
2018-04-02T07:27:02.011Z,6.38
2018-04-02T07:29:29.968Z,6.28
2018-04-02T07:31:57.618Z,6.49
2018-04-02T07:34:27.017Z,6.69
2018-04-02T07:36:54.881Z,6.81
2018-04-02T07:39:22.981Z,6.88
2018-04-02T07:41:50.690Z,6.55
2018-04-02T07:44:18.522Z,6.59
2018-04-02T07:46:46.070Z,6.81
2018-04-02T07:49:15.845Z,6.94
2018-04-02T07:51:43.688Z,6.89
2018-04-02T07:54:12.724Z,6.72
2018-04-02T07:56:40.291Z,6.63
2018-04-02T07:59:08.105Z,6.87
2018-04-02T08:01:35.716Z,7.05
2018-04-02T08:04:03.580Z,6.96
2018-04-02T08:06:31.269Z,7.10
2018-04-02T08:08:59.197Z,7.11
2018-04-02T08:11:26.867Z,6.96
2018-04-02T08:13:54.539Z,7.17
2018-04-02T08:16:23.900Z,7.19
2018-04-02T08:18:51.457Z,7.24
2018-04-02T08:21:19.397Z,7.29
2018-04-02T08:23:47.024Z,7.71
2018-04-02T08:26:14.680Z,7.78
2018-04-02T08:28:42.315Z,7.26
2018-04-02T08:31:11.070Z,7.48
2018-04-02T08:33:39.030Z,7.59
2018-04-02T08:36:06.707Z,7.66
2018-04-02T08:38:34.348Z,7.50
2018-04-02T08:41:02.217Z,7.57
2018-04-02T08:43:30.377Z,7.44
2018-04-02T08:45:57.951Z,7.72
2018-04-02T08:48:26.448Z,7.73
2018-04-02T08:50:53.997Z,7.46
2018-04-02T08:53:21.599Z,7.64
2018-04-02T08:55:49.183Z,7.70
2018-04-02T08:58:16.751Z,8.14
2018-04-02T09:00:44.379Z,7.90
2018-04-02T09:03:12.824Z,7.95
2018-04-02T09:05:40.418Z,7.88
2018-04-02T09:08:08.033Z,7.65
2018-04-02T09:10:36.844Z,8.15
2018-04-02T09:13:04.682Z,7.77
2018-04-02T09:15:32.278Z,8.18
2018-04-02T09:17:59.897Z,8.04
2018-04-02T09:20:27.458Z,8.43
2018-04-02T09:22:55.216Z,8.84
2018-04-02T09:25:23.211Z,8.16
2018-04-02T09:27:50.812Z,8.05
2018-04-02T09:30:18.695Z,7.99
2018-04-02T09:32:46.280Z,8.16
2018-04-02T09:35:14.329Z,8.30
2018-04-02T09:37:41.965Z,8.50
2018-04-02T09:40:09.553Z,8.46
2018-04-02T09:42:37.226Z,7.82
2018-04-02T09:45:05.294Z,7.66
2018-04-02T09:47:32.897Z,7.90
2018-04-02T09:50:00.775Z,7.78
2018-04-02T09:52:28.406Z,8.15
2018-04-02T09:54:56.008Z,8.12
2018-04-02T09:57:23.916Z,8.00
2018-04-02T09:59:51.522Z,7.91
2018-04-02T10:02:22.135Z,7.96
2018-04-02T10:04:49.877Z,7.94
2018-04-02T10:07:17.482Z,8.03
2018-04-02T10:09:45.094Z,8.35
2018-04-02T10:15:04.943Z,9.09
2018-04-02T10:17:34.415Z,9.37
2018-04-02T10:20:06.412Z,9.40
2018-04-02T10:22:34.089Z,10.01
2018-04-02T10:27:56.146Z,9.84
2018-04-02T10:30:23.760Z,10.08
2018-04-02T10:32:57.239Z,10.06
2018-04-02T10:35:28.797Z,9.43
2018-04-02T10:37:58.061Z,9.16
2018-04-02T10:40:25.931Z,9.12
2018-04-02T10:42:53.576Z,8.88
2018-04-02T10:45:21.405Z,8.52
2018-04-02T10:47:51.503Z,8.80
2018-04-02T10:50:19.104Z,8.92
2018-04-02T10:52:49.189Z,8.75
2018-04-02T10:55:16.903Z,8.72
2018-04-02T10:57:47.304Z,8.69
2018-04-02T11:00:19.083Z,8.62
2018-04-02T11:02:46.675Z,8.74
2018-04-02T11:05:14.598Z,8.55
2018-04-02T11:07:42.233Z,9.03
2018-04-02T11:10:09.952Z,9.08
2018-04-02T11:12:37.546Z,9.39
2018-04-02T11:15:05.328Z,9.50
2018-04-02T11:17:34.262Z,10.08
2018-04-02T11:20:01.872Z,10.64
2018-04-02T11:22:29.488Z,10.38
2018-04-02T11:24:57.083Z,9.76
2018-04-02T11:27:24.671Z,9.99
2018-04-02T11:29:52.338Z,10.23
2018-04-02T11:32:19.921Z,10.27
2018-04-02T11:34:47.494Z,10.20
2018-04-02T11:37:15.122Z,9.70
2018-04-02T11:39:42.671Z,9.57
2018-04-02T11:42:10.271Z,9.88
2018-04-02T11:44:37.879Z,9.83
2018-04-02T11:47:05.487Z,9.87
2018-04-02T11:49:33.082Z,11.04
2018-04-02T11:52:00.725Z,12.44
2018-04-02T11:54:28.303Z,12.91
2018-04-02T11:56:55.898Z,13.01
2018-04-02T11:59:23.549Z,13.37
2018-04-02T12:01:51.165Z,13.97
2018-04-02T12:04:18.749Z,14.45
2018-04-02T12:06:46.960Z,15.08
2018-04-02T12:09:14.674Z,15.18
2018-04-02T12:11:42.274Z,15.17
2018-04-02T12:14:09.906Z,13.55
2018-04-02T12:16:38.363Z,14.47
2018-04-02T12:19:05.917Z,14.27
2018-04-02T12:21:34.055Z,13.94
2018-04-02T12:24:01.637Z,13.18
2018-04-02T12:26:29.244Z,13.83
2018-04-02T12:28:56.817Z,15.03
2018-04-02T12:31:26.951Z,15.37
2018-04-02T12:33:54.548Z,15.24
2018-04-02T12:36:22.365Z,15.01
2018-04-02T12:38:50.318Z,15.92
2018-04-02T12:41:18.360Z,15.28
2018-04-02T12:43:45.966Z,15.08
2018-04-02T12:46:14.316Z,14.66
2018-04-02T12:48:42.362Z,15.08
2018-04-02T12:51:10.861Z,15.95
2018-04-02T12:53:38.840Z,16.02
2018-04-02T12:56:06.427Z,15.65
2018-04-02T12:58:34.011Z,16.07
2018-04-02T13:01:01.588Z,16.20
2018-04-02T13:03:29.804Z,15.59
2018-04-02T13:05:57.397Z,15.96
2018-04-02T13:08:24.994Z,16.88
2018-04-02T13:10:52.606Z,16.75
2018-04-02T13:13:20.661Z,15.87
2018-04-02T13:15:48.317Z,16.84
2018-04-02T13:18:16.748Z,17.12
2018-04-02T13:20:44.320Z,17.37
2018-04-02T13:23:12.005Z,15.92
2018-04-02T13:25:43.533Z,16.81
2018-04-02T13:28:11.135Z,16.09
2018-04-02T13:30:38.757Z,15.66
2018-04-02T13:33:06.477Z,16.38
2018-04-02T13:35:34.194Z,16.11
2018-04-02T13:38:01.847Z,15.64
2018-04-02T13:40:29.448Z,16.17
2018-04-02T13:43:00.650Z,16.76
2018-04-02T13:45:28.291Z,16.93
2018-04-02T13:47:55.868Z,15.73
2018-04-02T13:50:23.503Z,16.44
2018-04-02T13:52:51.083Z,16.87
2018-04-02T13:55:18.705Z,17.19
2018-04-02T13:57:46.409Z,17.35
2018-04-02T14:00:13.988Z,16.52
2018-04-02T14:02:41.567Z,15.86
2018-04-02T14:05:09.245Z,16.24
2018-04-02T14:07:38.572Z,16.12
2018-04-02T14:10:06.821Z,16.83
2018-04-02T14:12:34.581Z,17.02
2018-04-02T14:15:03.540Z,16.63
2018-04-02T14:17:31.772Z,16.55
2018-04-02T14:20:01.457Z,16.81
2018-04-02T14:22:29.114Z,16.58
2018-04-02T14:24:56.684Z,16.83
2018-04-02T14:27:24.325Z,17.30
2018-04-02T14:29:52.124Z,16.59
2018-04-02T14:32:21.272Z,16.62
2018-04-02T14:34:49.525Z,17.05
2018-04-02T14:37:17.886Z,17.12
2018-04-02T14:39:46.945Z,16.82
2018-04-02T14:42:17.441Z,16.84
2018-04-02T14:44:45.416Z,17.50
2018-04-02T14:47:13.077Z,17.41
2018-04-02T14:49:43.361Z,17.31
2018-04-02T14:52:13.289Z,17.28
2018-04-02T14:54:43.020Z,17.38
2018-04-02T14:57:11.057Z,17.24
2018-04-02T14:59:38.875Z,17.14
2018-04-02T15:02:06.491Z,16.88
2018-04-02T15:04:34.102Z,16.59
2018-04-02T15:07:01.680Z,17.27
2018-04-02T15:09:29.311Z,17.36
2018-04-02T15:11:56.927Z,16.84
2018-04-02T15:14:24.552Z,16.89
2018-04-02T15:16:52.119Z,17.10
2018-04-02T15:19:19.757Z,16.88
2018-04-02T15:21:47.341Z,16.83
2018-04-02T15:24:14.946Z,17.27
2018-04-02T15:26:42.817Z,17.77
2018-04-02T15:29:10.974Z,18.40
2018-04-02T15:31:38.545Z,17.85
2018-04-02T15:34:06.164Z,17.82
2018-04-02T15:36:33.800Z,17.92
2018-04-02T15:39:01.426Z,18.62
2018-04-02T15:41:29.028Z,18.36
2018-04-02T15:43:56.599Z,17.54
2018-04-02T15:46:25.094Z,17.28
2018-04-02T15:48:52.697Z,17.58
2018-04-02T15:51:20.389Z,18.35
2018-04-02T15:53:48.384Z,17.92
2018-04-02T15:56:16.008Z,17.80
2018-04-02T15:58:43.698Z,17.35
2018-04-02T16:01:11.295Z,17.44
2018-04-02T16:03:38.915Z,16.94
2018-04-02T16:06:06.610Z,16.67
2018-04-02T16:08:34.304Z,16.69
2018-04-02T16:11:01.926Z,17.95
2018-04-02T16:13:29.666Z,17.43
2018-04-02T16:15:57.291Z,17.01
2018-04-02T16:18:25.240Z,16.47
2018-04-02T16:20:52.820Z,16.04
2018-04-02T16:23:21.498Z,15.16
2018-04-02T16:25:50.001Z,14.63
2018-04-02T16:28:17.618Z,14.28
2018-04-02T16:30:45.218Z,13.70
2018-04-02T16:33:13.732Z,13.49
2018-04-02T16:35:41.381Z,13.14
2018-04-02T16:38:09.280Z,12.55
2018-04-02T16:40:37.986Z,11.92
2018-04-02T16:43:05.604Z,11.50
2018-04-02T16:45:33.321Z,11.20
2018-04-02T16:48:00.980Z,10.80
2018-04-02T16:50:28.583Z,10.41
2018-04-02T16:52:56.181Z,10.07
2018-04-02T16:55:24.694Z,9.85
2018-04-02T16:57:52.290Z,9.58
2018-04-02T17:00:19.892Z,9.42
2018-04-02T17:02:47.520Z,9.33
2018-04-02T17:05:15.567Z,9.12
2018-04-02T17:07:43.626Z,8.99
2018-04-02T17:10:12.385Z,8.87
2018-04-02T17:12:40.029Z,8.70
2018-04-02T17:15:08.310Z,8.49
2018-04-02T17:17:37.012Z,8.44
2018-04-02T17:20:04.634Z,8.38
2018-04-02T17:22:32.270Z,8.26
2018-04-02T17:24:59.863Z,8.07
2018-04-02T17:27:29.082Z,7.80
2018-04-02T17:29:56.728Z,7.59
2018-04-02T17:32:25.263Z,7.33
2018-04-02T17:34:53.240Z,7.19
2018-04-02T17:37:21.404Z,7.14
2018-04-02T17:39:48.975Z,7.11
2018-04-02T17:42:16.549Z,7.01
2018-04-02T17:44:44.130Z,7.03
2018-04-02T17:47:12.268Z,7.00
2018-04-02T17:49:39.860Z,6.86
2018-04-02T17:52:07.462Z,6.82
2018-04-02T17:54:35.062Z,6.80
2018-04-02T17:57:02.636Z,6.75
2018-04-02T17:59:30.257Z,6.63
2018-04-02T18:01:58.637Z,6.60
2018-04-02T18:04:26.595Z,6.57
2018-04-02T18:06:54.624Z,6.51
2018-04-02T18:09:23.258Z,6.44
2018-04-02T18:11:50.834Z,6.38
2018-04-02T18:14:18.723Z,6.38
2018-04-02T18:16:46.395Z,6.36
2018-04-02T18:19:14.094Z,6.28
2018-04-02T18:21:41.684Z,6.22
2018-04-02T18:24:09.984Z,6.18
2018-04-02T18:26:37.600Z,6.08
2018-04-02T18:29:05.153Z,6.06
2018-04-02T18:31:32.794Z,6.00
2018-04-02T18:34:00.351Z,5.99
2018-04-02T18:36:28.615Z,5.93
2018-04-02T18:38:56.479Z,5.88
2018-04-02T18:41:24.188Z,5.84
2018-04-02T18:43:51.850Z,5.76
2018-04-02T18:46:19.404Z,5.76
2018-04-02T18:48:46.951Z,5.68
2018-04-02T18:51:15.027Z,5.69
2018-04-02T18:53:42.676Z,5.68
2018-04-02T18:56:10.375Z,5.58
2018-04-02T18:58:38.267Z,5.53
2018-04-02T19:01:05.843Z,5.45
2018-04-02T19:03:33.440Z,5.44
2018-04-02T19:06:00.964Z,5.37
2018-04-02T19:08:28.542Z,5.32
2018-04-02T19:10:56.119Z,5.30
2018-04-02T19:13:24.067Z,5.29
2018-04-02T19:15:51.728Z,5.27
2018-04-02T19:18:19.298Z,5.24
2018-04-02T19:20:46.855Z,5.22
2018-04-02T19:23:14.798Z,5.17
2018-04-02T19:25:42.565Z,5.20
2018-04-02T19:28:10.225Z,5.19
2018-04-02T19:30:37.800Z,5.20
2018-04-02T19:33:05.624Z,5.16
2018-04-02T19:35:33.542Z,5.16
2018-04-02T19:38:01.428Z,5.26
2018-04-02T19:40:29.219Z,5.24
2018-04-02T19:42:56.794Z,5.16
2018-04-02T19:45:24.440Z,5.14
2018-04-02T19:47:52.150Z,5.11
2018-04-02T19:50:19.724Z,5.08
2018-04-02T19:52:47.310Z,5.12
2018-04-02T19:55:15.005Z,5.02
2018-04-02T19:57:42.657Z,4.94
2018-04-02T20:00:10.278Z,4.96
2018-04-02T20:02:37.871Z,4.81
2018-04-02T20:05:05.768Z,4.71
2018-04-02T20:07:33.551Z,4.62
2018-04-02T20:10:01.111Z,4.60
2018-04-02T20:12:28.666Z,4.59
2018-04-02T20:14:56.276Z,4.58
2018-04-02T20:17:23.840Z,4.59
2018-04-02T20:19:51.645Z,4.62
2018-04-02T20:22:19.438Z,4.60
2018-04-02T20:24:46.989Z,4.61
2018-04-02T20:27:14.570Z,4.54
2018-04-02T20:29:42.148Z,4.58
2018-04-02T20:32:09.830Z,4.60
2018-04-02T20:34:37.384Z,4.61
2018-04-02T20:37:05.139Z,4.65
2018-04-02T20:39:33.069Z,4.68
2018-04-02T20:42:00.634Z,4.70
2018-04-02T20:44:28.429Z,4.68
2018-04-02T20:46:55.979Z,4.67
2018-04-02T20:49:23.523Z,4.68
2018-04-02T20:51:51.125Z,4.68
2018-04-02T20:54:18.693Z,4.66
2018-04-02T20:56:46.192Z,4.64
2018-04-02T20:59:14.716Z,4.57
2018-04-02T21:01:42.263Z,4.60
2018-04-02T21:04:10.235Z,4.70
2018-04-02T21:06:37.838Z,4.67
2018-04-02T21:09:07.693Z,4.66
2018-04-02T21:11:35.949Z,4.61
2018-04-02T21:14:03.621Z,4.57
2018-04-02T21:16:31.167Z,4.55
2018-04-02T21:18:59.665Z,4.58
2018-04-02T21:21:27.237Z,4.62
2018-04-02T21:23:54.792Z,4.59
2018-04-02T21:26:22.370Z,4.59
2018-04-02T21:28:49.932Z,4.51
2018-04-02T21:31:17.480Z,4.46
2018-04-02T21:33:45.041Z,4.41
2018-04-02T21:36:12.597Z,4.34
2018-04-02T21:38:40.142Z,4.37
2018-04-02T21:41:07.777Z,4.40
2018-04-02T21:43:35.317Z,4.32
2018-04-02T21:46:02.870Z,4.24
2018-04-02T21:48:30.414Z,4.22
2018-04-02T21:50:57.976Z,4.16
2018-04-02T21:53:25.728Z,4.06
2018-04-02T21:55:53.278Z,4.04
2018-04-02T21:58:20.829Z,4.03
2018-04-02T22:00:48.377Z,3.99
2018-04-02T22:03:15.979Z,3.96
2018-04-02T22:05:43.576Z,3.89
2018-04-02T22:08:11.233Z,3.85
2018-04-02T22:10:38.817Z,3.83
2018-04-02T22:13:06.795Z,3.79
2018-04-02T22:15:34.355Z,3.72
2018-04-02T22:18:01.905Z,3.76
2018-04-02T22:20:29.917Z,3.66
2018-04-02T22:22:57.465Z,3.56
2018-04-02T22:25:25.140Z,3.50
2018-04-02T22:27:52.721Z,3.43
2018-04-02T22:30:20.312Z,3.33
2018-04-02T22:32:47.907Z,3.24
2018-04-02T22:35:15.690Z,3.37
2018-04-02T22:37:43.653Z,3.32
2018-04-02T22:40:11.257Z,3.25
2018-04-02T22:42:40.220Z,3.14
2018-04-02T22:45:08.666Z,3.31
2018-04-02T22:47:36.260Z,3.41
2018-04-02T22:50:03.838Z,3.31
2018-04-02T22:52:31.391Z,3.34
2018-04-02T22:54:58.950Z,3.28
2018-04-02T22:57:26.535Z,3.27
2018-04-02T22:59:54.072Z,3.23
2018-04-02T23:02:21.651Z,3.17
2018-04-02T23:04:49.199Z,3.16
2018-04-02T23:07:16.795Z,3.19
2018-04-02T23:09:44.348Z,3.26
2018-04-02T23:12:11.876Z,3.39
2018-04-02T23:14:39.429Z,3.49
2018-04-02T23:17:07.080Z,3.51
2018-04-02T23:19:34.686Z,3.50
2018-04-02T23:22:02.241Z,3.54
2018-04-02T23:24:29.799Z,3.53
2018-04-02T23:26:57.358Z,3.51
2018-04-02T23:29:24.894Z,3.55
2018-04-02T23:31:52.426Z,3.63
2018-04-02T23:34:19.984Z,3.72
2018-04-02T23:36:47.531Z,3.74
2018-04-02T23:39:24.026Z,3.78
2018-04-02T23:41:51.604Z,3.83
2018-04-02T23:44:19.162Z,3.85
2018-04-02T23:46:46.715Z,3.80
2018-04-02T23:49:14.264Z,3.79
2018-04-02T23:51:41.811Z,3.83
2018-04-02T23:54:09.423Z,3.84
2018-04-02T23:56:36.968Z,3.89
2018-04-02T23:59:04.535Z,3.98
